createdAt,value
2019-03-20T00:01:03.474Z,12.88
2019-03-20T00:03:33.696Z,13.83
2019-03-20T00:06:03.192Z,12.25
2019-03-20T00:08:33.195Z,12.15
2019-03-20T00:11:02.676Z,11.97
2019-03-20T00:13:32.248Z,12.58
2019-03-20T00:16:01.827Z,13.13
2019-03-20T00:18:31.315Z,12.07
2019-03-20T00:21:00.916Z,17.82
2019-03-20T00:23:30.404Z,16.97
2019-03-20T00:25:59.936Z,12.33
2019-03-20T00:28:29.547Z,11.43
2019-03-20T00:30:59.012Z,13.15
2019-03-20T00:33:28.502Z,13.85
2019-03-20T00:35:58.084Z,16.37
2019-03-20T00:38:27.701Z,13.80
2019-03-20T00:40:57.173Z,17.40
2019-03-20T00:43:27.760Z,17.23
2019-03-20T00:45:57.273Z,12.25
2019-03-20T00:48:27.773Z,10.40
2019-03-20T00:50:57.331Z,13.03
2019-03-20T00:53:27.032Z,14.43
2019-03-20T00:55:56.551Z,14.20
2019-03-20T00:58:26.011Z,12.07
2019-03-20T01:00:55.963Z,14.50
2019-03-20T01:03:26.609Z,15.13
2019-03-20T01:05:56.125Z,12.28
2019-03-20T01:08:25.640Z,11.73
2019-03-20T01:10:55.241Z,10.60
2019-03-20T01:13:24.811Z,14.03
2019-03-20T01:15:54.343Z,11.97
2019-03-20T01:18:23.852Z,11.18
2019-03-20T01:20:54.267Z,12.78
2019-03-20T01:23:23.728Z,14.20
2019-03-20T01:25:53.220Z,11.70
2019-03-20T01:28:22.792Z,13.28
2019-03-20T01:30:52.692Z,9.23
2019-03-20T01:33:22.143Z,9.25
2019-03-20T01:35:51.682Z,12.40
2019-03-20T01:38:21.140Z,9.40
2019-03-20T01:40:50.608Z,9.18
2019-03-20T01:43:20.174Z,11.47
2019-03-20T01:45:49.702Z,10.90
2019-03-20T01:48:20.226Z,9.93
2019-03-20T01:50:49.872Z,12.63
2019-03-20T01:53:19.439Z,16.73
2019-03-20T01:55:49.056Z,12.10
2019-03-20T01:58:18.559Z,11.65
2019-03-20T02:00:47.985Z,13.93
2019-03-20T02:03:17.467Z,13.08
2019-03-20T02:05:46.960Z,9.10
2019-03-20T02:08:16.396Z,8.83
2019-03-20T02:10:45.873Z,11.03
2019-03-20T02:13:15.712Z,15.98
2019-03-20T02:15:45.225Z,8.70
2019-03-20T02:18:14.767Z,13.78
2019-03-20T02:20:44.353Z,16.30
2019-03-20T02:23:13.835Z,14.83
2019-03-20T02:25:43.329Z,15.13
2019-03-20T02:28:12.778Z,9.43
2019-03-20T02:30:42.358Z,11.20
2019-03-20T02:33:11.862Z,14.10
2019-03-20T02:35:51.260Z,13.07
2019-03-20T02:38:12.880Z,9.93
2019-03-20T02:40:42.336Z,10.23
2019-03-20T02:43:11.840Z,9.13
2019-03-20T02:45:41.373Z,13.15
2019-03-20T02:48:10.895Z,11.93
2019-03-20T02:50:40.408Z,10.65
2019-03-20T02:53:09.907Z,10.53
2019-03-20T02:55:39.392Z,10.48
2019-03-20T02:58:08.853Z,10.65
2019-03-20T03:00:38.316Z,10.88
2019-03-20T03:03:07.830Z,8.33
2019-03-20T03:05:37.334Z,11.18
2019-03-20T03:08:06.864Z,11.68
2019-03-20T03:10:36.606Z,11.80
2019-03-20T03:13:06.284Z,11.30
2019-03-20T03:15:35.814Z,8.80
2019-03-20T03:18:05.601Z,10.48
2019-03-20T03:20:35.110Z,8.28
2019-03-20T03:23:04.752Z,11.22
2019-03-20T03:25:34.233Z,11.55
2019-03-20T03:28:05.051Z,11.22
2019-03-20T03:30:34.547Z,12.03
2019-03-20T03:33:04.603Z,11.66
2019-03-20T03:35:34.062Z,15.85
2019-03-20T03:38:04.669Z,9.00
2019-03-20T03:40:34.238Z,10.28
2019-03-20T03:43:04.495Z,11.63
2019-03-20T03:45:33.978Z,12.10
2019-03-20T03:48:04.730Z,10.78
2019-03-20T03:50:34.201Z,8.38
2019-03-20T03:53:04.479Z,10.93
2019-03-20T03:55:33.945Z,9.50
2019-03-20T03:58:04.521Z,8.05
2019-03-20T04:00:34.204Z,11.35
2019-03-20T04:03:04.700Z,11.85
2019-03-20T04:05:34.445Z,10.78
2019-03-20T04:08:04.991Z,9.20
2019-03-20T04:10:34.438Z,10.20
2019-03-20T04:13:04.877Z,8.94
2019-03-20T04:15:36.429Z,12.20
2019-03-20T04:18:06.775Z,9.78
2019-03-20T04:20:36.278Z,13.05
2019-03-20T04:23:05.786Z,8.25
2019-03-20T04:25:35.212Z,10.23
2019-03-20T04:28:04.708Z,11.70
2019-03-20T04:30:34.180Z,9.08
2019-03-20T04:33:04.682Z,13.90
2019-03-20T04:35:34.223Z,9.45
2019-03-20T04:38:04.475Z,7.58
2019-03-20T04:40:34.103Z,9.90
2019-03-20T04:43:04.512Z,10.18
2019-03-20T04:45:34.154Z,9.88
2019-03-20T04:48:04.555Z,10.28
2019-03-20T04:50:34.438Z,9.48
2019-03-20T04:53:04.412Z,10.75
2019-03-20T04:55:33.979Z,11.12
2019-03-20T04:58:03.401Z,7.87
2019-03-20T05:00:32.836Z,9.68
2019-03-20T05:03:02.304Z,9.58
2019-03-20T05:05:31.765Z,11.25
2019-03-20T05:08:01.287Z,10.72
2019-03-20T05:10:30.803Z,9.95
2019-03-20T05:13:00.344Z,12.25
2019-03-20T05:15:29.957Z,12.20
2019-03-20T05:18:00.377Z,10.80
2019-03-20T05:20:29.872Z,11.70
2019-03-20T05:22:59.375Z,13.28
2019-03-20T05:25:28.932Z,13.45
2019-03-20T05:27:58.401Z,12.47
2019-03-20T05:30:27.927Z,15.93
2019-03-20T05:32:57.432Z,13.50
2019-03-20T05:35:26.917Z,13.03
2019-03-20T05:37:56.440Z,15.25
2019-03-20T05:40:25.886Z,13.45
2019-03-20T05:42:55.359Z,12.28
2019-03-20T05:45:24.912Z,8.78
2019-03-20T05:47:54.391Z,10.93
2019-03-20T05:50:24.154Z,12.93
2019-03-20T05:52:53.703Z,11.25
2019-03-20T05:55:23.288Z,11.05
2019-03-20T05:57:52.762Z,9.38
2019-03-20T06:00:23.289Z,12.25
2019-03-20T06:02:52.760Z,10.75
2019-03-20T06:05:22.197Z,12.75
2019-03-20T06:07:52.666Z,16.87
2019-03-20T06:10:22.103Z,11.85
2019-03-20T06:12:51.574Z,12.90
2019-03-20T06:15:21.126Z,10.48
2019-03-20T06:17:51.073Z,12.78
2019-03-20T06:20:21.663Z,8.13
2019-03-20T06:22:51.160Z,11.08
2019-03-20T06:25:21.399Z,12.23
2019-03-20T06:27:52.879Z,13.10
2019-03-20T06:30:22.996Z,10.27
2019-03-20T06:32:52.529Z,11.65
2019-03-20T06:35:22.009Z,15.88
2019-03-20T06:37:51.500Z,13.50
2019-03-20T06:40:21.025Z,11.87
2019-03-20T06:42:50.722Z,10.05
2019-03-20T06:45:21.430Z,13.03
2019-03-20T06:47:50.895Z,14.60
2019-03-20T06:50:22.162Z,16.67
2019-03-20T06:52:51.620Z,13.35
2019-03-20T06:55:21.158Z,13.50
2019-03-20T06:57:50.728Z,15.70
2019-03-20T07:00:29.236Z,17.00
2019-03-20T07:03:00.240Z,16.15
2019-03-20T07:05:35.661Z,14.38
2019-03-20T07:08:06.437Z,14.80
2019-03-20T07:10:50.682Z,11.53
2019-03-20T07:13:20.237Z,14.70
2019-03-20T07:15:49.751Z,20.90
2019-03-20T07:18:19.281Z,18.32
2019-03-20T07:20:48.930Z,18.85
2019-03-20T07:23:18.592Z,14.27
2019-03-20T07:25:48.894Z,17.60
2019-03-20T07:28:18.385Z,17.55
2019-03-20T07:30:47.837Z,15.18
2019-03-20T07:33:17.334Z,16.90
2019-03-20T07:35:46.761Z,15.25
2019-03-20T07:38:16.376Z,15.10
2019-03-20T07:40:45.914Z,16.15
2019-03-20T07:43:15.427Z,20.82
2019-03-20T07:45:44.898Z,18.12
2019-03-20T07:48:22.181Z,14.27
2019-03-20T07:50:45.723Z,17.75
2019-03-20T07:53:15.202Z,17.10
2019-03-20T07:55:44.860Z,16.95
2019-03-20T07:58:14.343Z,18.43
2019-03-20T08:00:43.873Z,18.40
2019-03-20T08:03:14.726Z,21.87
2019-03-20T08:05:44.177Z,21.10
2019-03-20T08:08:13.790Z,15.23
2019-03-20T08:10:43.245Z,22.73
2019-03-20T08:13:12.750Z,18.02
2019-03-20T08:15:42.223Z,20.62
2019-03-20T08:18:11.695Z,20.75
2019-03-20T08:20:41.155Z,18.70
2019-03-20T08:23:10.632Z,23.35
2019-03-20T08:25:40.135Z,21.90
2019-03-20T08:28:09.937Z,20.00
2019-03-20T08:30:39.465Z,20.65
2019-03-20T08:33:09.034Z,21.90
2019-03-20T08:35:38.697Z,19.60
2019-03-20T08:38:17.635Z,24.35
2019-03-20T08:40:40.402Z,20.60
2019-03-20T08:43:09.888Z,25.00
2019-03-20T08:45:39.450Z,18.32
2019-03-20T08:48:08.895Z,20.50
2019-03-20T08:50:38.471Z,17.55
2019-03-20T08:53:08.070Z,18.65
2019-03-20T08:55:38.756Z,18.23
2019-03-20T08:58:08.200Z,22.22
2019-03-20T09:00:37.664Z,18.10
2019-03-20T09:03:07.321Z,19.52
2019-03-20T09:05:36.802Z,17.77
2019-03-20T09:08:06.296Z,21.20
2019-03-20T09:10:35.770Z,17.00
2019-03-20T09:13:05.268Z,16.73
2019-03-20T09:15:34.760Z,19.20
2019-03-20T09:18:05.016Z,20.08
2019-03-20T09:20:34.627Z,16.17
2019-03-20T09:23:04.356Z,17.12
2019-03-20T09:25:33.945Z,18.75
2019-03-20T09:28:03.547Z,23.00
2019-03-20T09:30:33.028Z,16.12
2019-03-20T09:33:02.477Z,20.65
2019-03-20T09:35:31.996Z,17.30
2019-03-20T09:38:01.459Z,18.35
2019-03-20T09:40:30.944Z,16.60
2019-03-20T09:43:00.442Z,15.83
2019-03-20T09:45:30.319Z,21.33
2019-03-20T09:48:00.030Z,19.02
2019-03-20T09:50:29.991Z,17.50
2019-03-20T09:52:59.487Z,18.62
2019-03-20T09:55:28.952Z,20.55
2019-03-20T09:57:58.435Z,17.23
2019-03-20T10:00:30.930Z,16.77
2019-03-20T10:03:00.546Z,18.92
2019-03-20T10:05:30.977Z,20.85
2019-03-20T10:08:00.492Z,18.17
2019-03-20T10:10:31.100Z,19.60
2019-03-20T10:13:00.614Z,17.90
2019-03-20T10:15:32.178Z,18.37
2019-03-20T10:18:01.689Z,18.42
2019-03-20T10:20:31.257Z,14.87
2019-03-20T10:23:00.825Z,16.05
2019-03-20T10:25:30.305Z,15.23
2019-03-20T10:27:59.736Z,18.07
2019-03-20T10:30:30.325Z,17.50
2019-03-20T10:32:59.717Z,18.32
2019-03-20T10:35:29.211Z,17.07
2019-03-20T10:37:58.643Z,13.88
2019-03-20T10:40:28.804Z,18.17
2019-03-20T10:42:58.386Z,20.68
2019-03-20T10:45:27.888Z,19.00
2019-03-20T10:47:57.333Z,16.80
2019-03-20T10:50:30.496Z,16.40
2019-03-20T10:53:00.050Z,17.17
2019-03-20T10:55:29.535Z,15.03
2019-03-20T10:57:59.058Z,15.08
2019-03-20T11:00:29.976Z,18.07
2019-03-20T11:02:59.454Z,16.25
2019-03-20T11:05:29.002Z,15.53
2019-03-20T11:07:58.471Z,14.98
2019-03-20T11:10:28.827Z,22.85
2019-03-20T11:12:58.557Z,17.25
2019-03-20T11:15:29.722Z,14.28
2019-03-20T11:17:59.346Z,16.02
2019-03-20T11:20:29.742Z,16.97
2019-03-20T11:22:59.194Z,18.60
2019-03-20T11:25:29.701Z,17.92
2019-03-20T11:27:59.208Z,15.35
2019-03-20T11:30:29.722Z,14.65
2019-03-20T11:32:59.339Z,15.58
2019-03-20T11:35:28.814Z,15.55
2019-03-20T11:37:58.292Z,16.15
2019-03-20T11:40:30.153Z,14.75
2019-03-20T11:42:59.596Z,15.35
2019-03-20T11:45:29.238Z,12.43
2019-03-20T11:47:58.723Z,10.93
2019-03-20T11:50:33.963Z,10.20
2019-03-20T11:53:05.445Z,9.84
2019-03-20T11:55:35.141Z,8.18
2019-03-20T11:58:05.323Z,13.10
2019-03-20T12:00:34.957Z,8.25
2019-03-20T12:03:04.955Z,9.78
2019-03-20T12:05:34.910Z,15.13
2019-03-20T12:08:06.245Z,9.38
2019-03-20T12:10:35.753Z,8.73
2019-03-20T12:13:05.353Z,12.65
2019-03-20T12:15:35.031Z,7.50
2019-03-20T12:18:06.173Z,8.65
2019-03-20T12:20:35.615Z,10.75
2019-03-20T12:23:05.195Z,8.60
2019-03-20T12:25:36.653Z,8.80
2019-03-20T12:28:06.811Z,6.75
2019-03-20T12:30:38.421Z,6.15
2019-03-20T12:33:08.132Z,8.05
2019-03-20T12:35:45.708Z,7.60
2019-03-20T12:38:15.619Z,7.42
2019-03-20T12:40:45.246Z,9.23
2019-03-20T12:43:14.907Z,10.20
2019-03-20T12:45:44.355Z,9.38
2019-03-20T12:48:16.163Z,8.43
2019-03-20T12:50:45.663Z,7.28
2019-03-20T12:53:18.116Z,5.17
2019-03-20T12:55:47.622Z,8.15
2019-03-20T12:58:17.193Z,8.10
2019-03-20T13:03:17.922Z,7.47
2019-03-20T13:05:47.358Z,8.38
2019-03-20T13:08:16.792Z,8.35
2019-03-20T13:10:46.322Z,10.20
2019-03-20T13:13:15.972Z,12.68
2019-03-20T13:15:45.550Z,8.73
2019-03-20T13:18:15.201Z,9.38
2019-03-20T13:20:44.790Z,11.38
2019-03-20T13:23:26.433Z,9.93
2019-03-20T13:25:55.999Z,10.13
2019-03-20T13:28:25.514Z,11.93
2019-03-20T13:31:04.135Z,10.50
2019-03-20T13:33:33.701Z,11.48
2019-03-20T13:36:03.148Z,12.68
2019-03-20T13:38:32.698Z,10.68
2019-03-20T13:41:02.174Z,12.82
2019-03-20T13:43:31.650Z,12.07
2019-03-20T13:46:01.092Z,15.10
2019-03-20T13:48:30.565Z,13.03
2019-03-20T13:51:00.010Z,12.43
2019-03-20T13:53:29.520Z,12.95
2019-03-20T13:55:59.146Z,14.60
2019-03-20T13:58:28.744Z,12.82
2019-03-20T14:00:58.221Z,11.18
2019-03-20T14:03:27.730Z,12.60
2019-03-20T14:05:58.303Z,11.22
2019-03-20T14:08:27.745Z,16.27
2019-03-20T14:10:57.224Z,12.20
2019-03-20T14:13:26.727Z,15.20
2019-03-20T14:15:56.198Z,12.40
2019-03-20T14:18:26.818Z,10.53
2019-03-20T14:20:56.397Z,11.78
2019-03-20T14:23:25.896Z,11.97
2019-03-20T14:25:56.410Z,14.05
2019-03-20T14:28:25.938Z,13.38
2019-03-20T14:30:55.369Z,12.70
2019-03-20T14:33:24.852Z,14.23
2019-03-20T14:35:54.311Z,13.93
2019-03-20T14:38:23.787Z,11.88
2019-03-20T14:40:53.303Z,17.73
2019-03-20T14:43:22.833Z,13.32
2019-03-20T14:45:52.311Z,12.33
2019-03-20T14:48:21.945Z,13.08
2019-03-20T14:50:51.414Z,13.62
2019-03-20T14:53:20.870Z,11.90
2019-03-20T14:55:50.417Z,12.90
2019-03-20T14:58:19.982Z,14.83
2019-03-20T15:00:49.498Z,13.45
2019-03-20T15:03:18.965Z,11.33
2019-03-20T15:05:48.455Z,15.55
2019-03-20T15:08:17.898Z,14.97
2019-03-20T15:10:47.460Z,13.45
2019-03-20T15:13:16.908Z,14.07
2019-03-20T15:15:52.435Z,13.45
2019-03-20T15:18:21.903Z,14.47
2019-03-20T15:20:51.570Z,14.33
2019-03-20T15:23:21.022Z,16.05
2019-03-20T15:25:50.502Z,13.70
2019-03-20T15:28:20.040Z,16.10
2019-03-20T15:30:49.524Z,13.28
2019-03-20T15:33:19.090Z,10.68
2019-03-20T15:35:48.536Z,13.28
2019-03-20T15:38:17.983Z,12.78
2019-03-20T15:40:55.825Z,13.47
2019-03-20T15:43:18.779Z,12.43
2019-03-20T15:45:48.323Z,12.05
2019-03-20T15:48:17.853Z,13.62
2019-03-20T15:50:47.324Z,14.65
2019-03-20T15:53:16.771Z,13.05
2019-03-20T15:55:46.599Z,10.65
2019-03-20T15:58:16.746Z,11.40
2019-03-20T16:00:46.528Z,16.30
2019-03-20T16:03:27.885Z,12.98
2019-03-20T16:05:57.591Z,11.83
2019-03-20T16:08:27.108Z,13.48
2019-03-20T16:11:06.154Z,12.07
2019-03-20T16:13:28.523Z,11.33
2019-03-20T16:15:59.175Z,11.18
2019-03-20T16:18:28.685Z,11.25
2019-03-20T16:20:58.354Z,13.48
2019-03-20T16:23:27.824Z,11.35
2019-03-20T16:25:57.340Z,13.25
2019-03-20T16:28:26.809Z,12.03
2019-03-20T16:30:56.416Z,11.22
2019-03-20T16:33:26.377Z,12.18
2019-03-20T16:35:55.864Z,11.05
2019-03-20T16:38:25.685Z,11.97
2019-03-20T16:40:55.241Z,9.98
2019-03-20T16:43:25.004Z,11.43
2019-03-20T16:45:55.427Z,9.45
2019-03-20T16:48:24.905Z,13.15
2019-03-20T16:50:54.802Z,9.20
2019-03-20T16:53:24.378Z,11.30
2019-03-20T16:55:54.016Z,8.20
2019-03-20T16:58:23.856Z,9.53
2019-03-20T17:00:53.424Z,10.60
2019-03-20T17:03:54.806Z,10.68
2019-03-20T17:06:51.467Z,8.10
2019-03-20T17:09:20.922Z,9.63
2019-03-20T17:11:50.408Z,7.37
2019-03-20T17:14:20.374Z,12.78
2019-03-20T17:16:50.183Z,10.50
2019-03-20T17:19:19.707Z,9.33
2019-03-20T17:21:50.975Z,11.22
2019-03-20T17:24:22.686Z,9.03
2019-03-20T17:26:54.069Z,8.43
2019-03-20T17:29:23.767Z,9.83
2019-03-20T17:31:53.274Z,7.62
2019-03-20T17:34:22.827Z,9.20
2019-03-20T17:36:52.299Z,9.98
2019-03-20T17:39:24.768Z,9.70
2019-03-20T17:41:54.288Z,11.70
2019-03-20T17:44:23.803Z,11.68
2019-03-20T17:46:53.468Z,13.05
2019-03-20T17:49:23.109Z,11.00
2019-03-20T17:51:52.646Z,9.85
2019-03-20T17:54:22.432Z,8.75
2019-03-20T17:56:52.288Z,11.28
2019-03-20T17:59:21.769Z,9.55
2019-03-20T18:01:51.758Z,11.18
2019-03-20T18:04:21.472Z,12.83
2019-03-20T18:06:59.526Z,10.38
2019-03-20T18:09:31.253Z,10.88
2019-03-20T18:12:00.807Z,10.90
2019-03-20T18:14:31.266Z,10.23
2019-03-20T18:17:01.079Z,12.73
2019-03-20T18:19:30.659Z,10.48
2019-03-20T18:22:00.141Z,10.20
2019-03-20T18:24:29.720Z,13.32
2019-03-20T18:26:59.395Z,9.85
2019-03-20T18:29:29.051Z,10.48
2019-03-20T18:31:58.560Z,11.15
2019-03-20T18:34:28.242Z,10.30
2019-03-20T18:36:59.360Z,12.93
2019-03-20T18:39:29.286Z,13.48
2019-03-20T18:41:58.851Z,10.98
2019-03-20T18:44:28.749Z,10.23
2019-03-20T18:46:58.663Z,15.15
2019-03-20T18:49:28.758Z,13.08
2019-03-20T18:51:58.285Z,14.58
2019-03-20T18:54:27.840Z,13.45
2019-03-20T18:56:58.150Z,14.28
2019-03-20T18:59:31.542Z,11.20
2019-03-20T19:02:01.387Z,13.32
2019-03-20T19:04:31.049Z,10.18
2019-03-20T19:07:00.818Z,9.50
2019-03-20T19:09:30.949Z,13.17
2019-03-20T19:12:08.597Z,10.28
2019-03-20T19:14:37.581Z,10.72
2019-03-20T19:17:07.522Z,11.35
2019-03-20T19:19:41.387Z,12.68
2019-03-20T19:22:11.018Z,11.33
2019-03-20T19:24:41.837Z,12.73
2019-03-20T19:27:13.158Z,10.20
2019-03-20T19:29:44.843Z,11.88
2019-03-20T19:32:16.021Z,11.33
2019-03-20T19:34:46.960Z,13.28
2019-03-20T19:37:16.424Z,12.37
2019-03-20T19:39:46.052Z,12.65
2019-03-20T19:42:20.244Z,12.63
2019-03-20T19:44:50.698Z,14.43
2019-03-20T19:47:22.238Z,10.82
2019-03-20T19:49:51.860Z,13.72
2019-03-20T19:52:25.457Z,11.77
2019-03-20T19:54:55.936Z,13.25
2019-03-20T19:57:27.897Z,13.50
2019-03-20T19:59:59.814Z,14.33
2019-03-20T20:02:38.536Z,15.00
2019-03-20T20:05:15.311Z,13.08
2019-03-20T20:07:41.651Z,15.32
2019-03-20T20:10:14.527Z,11.12
2019-03-20T20:12:44.237Z,15.83
2019-03-20T20:15:24.449Z,15.33
2019-03-20T20:17:53.895Z,13.13
2019-03-20T20:20:37.215Z,12.73
2019-03-20T20:23:06.803Z,14.68
2019-03-20T20:25:36.365Z,11.97
2019-03-20T20:28:05.926Z,14.35
2019-03-20T20:30:35.544Z,12.18
2019-03-20T20:33:05.304Z,14.87
2019-03-20T20:35:34.893Z,15.05
2019-03-20T20:38:07.087Z,15.70
2019-03-20T20:40:36.674Z,16.55
2019-03-20T20:43:06.132Z,18.23
2019-03-20T20:45:37.724Z,16.07
2019-03-20T20:48:07.768Z,15.18
2019-03-20T20:50:39.629Z,17.92
2019-03-20T20:53:09.331Z,15.70
2019-03-20T20:55:39.161Z,17.23
2019-03-20T20:58:10.262Z,13.68
2019-03-20T21:00:39.750Z,16.12
2019-03-20T21:03:09.217Z,15.43
2019-03-20T21:05:38.796Z,18.07
2019-03-20T21:08:08.286Z,19.85
2019-03-20T21:10:37.761Z,18.50
2019-03-20T21:13:07.214Z,19.37
2019-03-20T21:15:44.249Z,20.70
2019-03-20T21:18:16.749Z,20.32
2019-03-20T21:20:48.455Z,18.73
2019-03-20T21:23:38.796Z,19.95
2019-03-20T21:26:23.182Z,19.42
2019-03-20T21:29:12.785Z,20.55
2019-03-20T21:31:51.305Z,20.55
2019-03-20T21:34:35.856Z,22.42
2019-03-20T21:37:30.547Z,19.92
2019-03-20T21:40:00.493Z,22.52
2019-03-20T21:42:34.223Z,19.65
2019-03-20T21:45:42.098Z,22.30
2019-03-20T21:48:11.796Z,19.23
2019-03-20T21:50:56.667Z,22.27
2019-03-20T21:53:41.102Z,22.95
2019-03-20T21:56:36.661Z,22.42
2019-03-20T21:59:20.958Z,21.57
2019-03-20T22:02:12.150Z,22.37
2019-03-20T22:04:42.734Z,21.75
2019-03-20T22:07:13.053Z,24.23
2019-03-20T22:09:54.985Z,25.25
2019-03-20T22:12:42.607Z,22.80
2019-03-20T22:15:28.366Z,27.83
2019-03-20T22:18:26.717Z,22.17
2019-03-20T22:20:59.317Z,23.05
2019-03-20T22:23:41.008Z,19.67
2019-03-20T22:26:34.780Z,22.73
2019-03-20T22:29:20.295Z,22.93
2019-03-20T22:32:11.809Z,23.25
2019-03-20T22:35:08.725Z,24.80
2019-03-20T22:37:39.616Z,24.77
2019-03-20T22:40:18.028Z,22.42
2019-03-20T22:43:05.617Z,25.75
2019-03-20T22:45:40.980Z,22.60
2019-03-20T22:48:46.723Z,24.10
2019-03-20T22:51:29.080Z,21.50
2019-03-20T22:54:10.687Z,25.52
2019-03-20T22:56:58.277Z,20.75
2019-03-20T22:59:27.828Z,21.65
2019-03-20T23:02:07.172Z,21.23
2019-03-20T23:04:39.891Z,23.05
2019-03-20T23:07:10.686Z,24.67
2019-03-20T23:09:40.436Z,25.32
2019-03-20T23:12:12.463Z,22.65
2019-03-20T23:14:41.934Z,26.62
2019-03-20T23:17:12.597Z,24.23
2019-03-20T23:19:43.634Z,25.60
2019-03-20T23:22:13.088Z,27.35
2019-03-20T23:24:43.024Z,25.72
2019-03-20T23:27:22.007Z,27.65
2019-03-20T23:29:52.596Z,27.37
2019-03-20T23:32:22.069Z,27.15
2019-03-20T23:34:51.712Z,28.77
2019-03-20T23:37:21.201Z,27.48
2019-03-20T23:40:13.085Z,25.70
2019-03-20T23:42:50.535Z,27.90
2019-03-20T23:45:20.608Z,24.77
2019-03-20T23:47:53.135Z,28.27
2019-03-20T23:50:22.681Z,27.62
2019-03-20T23:52:52.407Z,24.72
2019-03-20T23:55:21.969Z,30.10
2019-03-20T23:57:51.512Z,26.10
